createdAt,value
2018-12-20T00:00:09.695Z,68.99
2018-12-20T00:02:37.262Z,69.39
2018-12-20T00:05:05.592Z,69.22
2018-12-20T00:07:33.260Z,69.45
2018-12-20T00:10:01.020Z,69.13
2018-12-20T00:12:29.398Z,69.38
2018-12-20T00:14:56.858Z,69.15
2018-12-20T00:17:30.358Z,69.38
2018-12-20T00:19:57.768Z,69.36
2018-12-20T00:22:25.853Z,69.25
2018-12-20T00:24:53.543Z,69.25
2018-12-20T00:27:22.031Z,69.21
2018-12-20T00:29:49.722Z,69.29
2018-12-20T00:32:17.410Z,69.36
2018-12-20T00:34:44.956Z,69.34
2018-12-20T00:37:12.460Z,69.50
2018-12-20T00:39:40.393Z,69.59
2018-12-20T00:42:08.477Z,69.78
2018-12-20T00:44:37.523Z,69.22
2018-12-20T00:47:05.251Z,69.59
2018-12-20T00:49:32.643Z,69.45
2018-12-20T00:52:00.127Z,69.93
2018-12-20T00:54:27.722Z,69.38
2018-12-20T00:56:55.472Z,69.65
2018-12-20T00:59:23.077Z,69.93
2018-12-20T01:01:51.200Z,69.83
2018-12-20T01:04:18.763Z,69.60
2018-12-20T01:06:46.161Z,69.85
2018-12-20T01:09:13.571Z,69.92
2018-12-20T01:11:41.873Z,69.60
2018-12-20T01:14:09.698Z,69.84
2018-12-20T01:16:37.658Z,69.90
2018-12-20T01:19:05.246Z,69.68
2018-12-20T01:21:32.672Z,69.67
2018-12-20T01:24:00.194Z,70.08
2018-12-20T01:26:27.748Z,69.84
2018-12-20T01:28:55.169Z,69.87
2018-12-20T01:31:22.887Z,69.52
2018-12-20T01:33:50.555Z,69.91
2018-12-20T01:36:18.071Z,69.85
2018-12-20T01:38:45.636Z,70.06
2018-12-20T01:41:13.219Z,70.08
2018-12-20T01:43:41.116Z,69.85
2018-12-20T01:46:08.868Z,69.60
2018-12-20T01:48:36.436Z,69.83
2018-12-20T01:51:04.162Z,70.17
2018-12-20T01:53:32.005Z,69.99
2018-12-20T01:55:59.734Z,69.77
2018-12-20T01:58:27.779Z,69.87
2018-12-20T02:00:55.337Z,69.96
2018-12-20T02:03:22.874Z,69.93
2018-12-20T02:05:50.398Z,70.01
2018-12-20T02:08:17.881Z,70.01
2018-12-20T02:10:45.283Z,69.87
2018-12-20T02:13:12.966Z,70.23
2018-12-20T02:15:41.347Z,70.14
2018-12-20T02:18:08.932Z,70.00
2018-12-20T02:20:37.301Z,70.15
2018-12-20T02:23:05.080Z,70.27
2018-12-20T02:25:33.382Z,70.51
2018-12-20T02:28:00.780Z,70.25
2018-12-20T02:30:28.598Z,70.27
2018-12-20T02:32:56.563Z,70.83
2018-12-20T02:35:24.758Z,70.57
2018-12-20T02:37:52.697Z,70.63
2018-12-20T02:40:20.343Z,70.65
2018-12-20T02:42:47.763Z,70.36
2018-12-20T02:45:15.194Z,70.61
2018-12-20T02:47:42.609Z,70.71
2018-12-20T02:50:10.099Z,70.71
2018-12-20T02:52:37.647Z,71.14
2018-12-20T02:55:05.337Z,71.02
2018-12-20T02:57:32.793Z,70.83
2018-12-20T03:00:00.324Z,70.74
2018-12-20T03:02:27.905Z,70.81
2018-12-20T03:04:56.485Z,71.05
2018-12-20T03:07:24.229Z,71.17
2018-12-20T03:09:52.440Z,71.17
2018-12-20T03:12:19.968Z,70.83
2018-12-20T03:14:47.784Z,71.12
2018-12-20T03:17:15.403Z,71.07
2018-12-20T03:19:42.956Z,71.05
2018-12-20T03:22:10.645Z,70.96
2018-12-20T03:24:38.339Z,71.03
2018-12-20T03:27:05.835Z,71.18
2018-12-20T03:29:33.416Z,70.69
2018-12-20T03:32:00.928Z,70.70
2018-12-20T03:34:28.405Z,70.92
2018-12-20T03:36:56.109Z,70.94
2018-12-20T03:39:23.542Z,70.64
2018-12-20T03:41:51.532Z,70.61
2018-12-20T03:44:19.493Z,70.64
2018-12-20T03:46:47.036Z,71.08
2018-12-20T03:49:14.524Z,70.74
2018-12-20T03:51:43.058Z,70.62
2018-12-20T03:54:10.784Z,70.91
2018-12-20T03:56:38.323Z,70.94
2018-12-20T03:59:05.950Z,71.13
2018-12-20T04:01:33.343Z,70.73
2018-12-20T04:12:32.796Z,71.38
2018-12-20T04:15:01.069Z,71.22
2018-12-20T04:17:28.683Z,71.43
2018-12-20T04:19:56.577Z,71.71
2018-12-20T04:22:24.033Z,71.70
2018-12-20T04:24:51.481Z,71.76
2018-12-20T04:27:19.203Z,72.19
2018-12-20T04:29:46.660Z,72.10
2018-12-20T04:32:14.196Z,72.08
2018-12-20T04:34:41.713Z,72.00
2018-12-20T04:37:09.119Z,72.05
2018-12-20T04:39:36.910Z,72.17
2018-12-20T04:42:04.899Z,72.04
2018-12-20T04:44:33.474Z,72.16
2018-12-20T04:47:01.271Z,72.06
2018-12-20T04:49:29.439Z,72.21
2018-12-20T04:51:57.083Z,72.26
2018-12-20T04:54:24.864Z,72.31
2018-12-20T04:56:52.847Z,71.95
2018-12-20T04:59:20.936Z,72.13
2018-12-20T05:01:48.381Z,72.18
2018-12-20T05:04:16.213Z,72.37
2018-12-20T05:06:43.838Z,72.23
2018-12-20T05:09:14.655Z,72.47
2018-12-20T05:11:44.284Z,72.51
2018-12-20T05:14:12.043Z,72.24
2018-12-20T05:16:39.948Z,72.43
2018-12-20T05:19:07.692Z,72.55
2018-12-20T05:21:35.298Z,72.59
2018-12-20T05:24:02.693Z,72.53
2018-12-20T05:26:30.216Z,73.14
2018-12-20T05:28:57.858Z,73.09
2018-12-20T05:31:25.392Z,73.12
2018-12-20T05:33:53.095Z,73.40
2018-12-20T05:36:20.751Z,73.72
2018-12-20T05:38:48.198Z,73.45
2018-12-20T05:41:15.695Z,73.54
2018-12-20T05:43:43.361Z,73.52
2018-12-20T05:46:10.975Z,73.83
2018-12-20T05:48:38.734Z,73.61
2018-12-20T05:51:06.326Z,73.76
2018-12-20T05:53:34.042Z,73.38
2018-12-20T05:56:01.656Z,73.42
2018-12-20T05:58:29.055Z,73.59
2018-12-20T06:00:56.444Z,73.82
2018-12-20T06:03:23.940Z,73.60
2018-12-20T06:05:51.392Z,73.50
2018-12-20T06:08:18.853Z,73.48
2018-12-20T06:10:46.564Z,73.35
2018-12-20T06:13:14.145Z,73.36
2018-12-20T06:15:41.636Z,73.56
2018-12-20T06:18:09.352Z,73.37
2018-12-20T06:20:36.744Z,73.35
2018-12-20T06:23:04.295Z,73.41
2018-12-20T06:25:31.809Z,73.77
2018-12-20T06:27:59.216Z,73.75
2018-12-20T06:30:26.608Z,73.77
2018-12-20T06:32:54.320Z,73.91
2018-12-20T06:35:21.725Z,73.52
2018-12-20T06:37:49.126Z,73.66
2018-12-20T06:40:16.620Z,73.47
2018-12-20T06:42:44.017Z,73.80
2018-12-20T06:45:11.412Z,73.70
2018-12-20T06:47:38.924Z,73.40
2018-12-20T06:50:06.645Z,73.63
2018-12-20T06:52:34.038Z,73.59
2018-12-20T06:55:02.257Z,73.83
2018-12-20T06:57:29.659Z,73.79
2018-12-20T06:59:57.145Z,73.65
2018-12-20T07:02:24.902Z,73.96
2018-12-20T07:04:52.288Z,73.62
2018-12-20T07:07:19.699Z,73.45
2018-12-20T07:09:47.363Z,73.14
2018-12-20T07:12:14.766Z,73.59
2018-12-20T07:14:42.379Z,73.61
2018-12-20T07:17:10.031Z,73.22
2018-12-20T07:19:37.427Z,73.26
2018-12-20T07:22:04.815Z,73.31
2018-12-20T07:24:32.333Z,73.12
2018-12-20T07:26:59.718Z,73.52
2018-12-20T07:29:27.107Z,73.25
2018-12-20T07:31:54.608Z,73.31
2018-12-20T07:34:22.007Z,72.99
2018-12-20T07:36:49.474Z,73.33
2018-12-20T07:39:16.905Z,73.09
2018-12-20T07:41:44.297Z,73.35
2018-12-20T07:44:11.685Z,72.98
2018-12-20T07:46:39.118Z,72.98
2018-12-20T07:49:06.505Z,72.75
2018-12-20T07:51:33.903Z,72.76
2018-12-20T07:54:01.685Z,72.80
2018-12-20T07:56:29.111Z,73.00
2018-12-20T07:58:56.507Z,72.92
2018-12-20T08:01:24.083Z,72.79
2018-12-20T08:03:52.097Z,72.57
2018-12-20T08:06:19.503Z,72.46
2018-12-20T08:08:47.015Z,72.54
2018-12-20T08:11:14.799Z,72.85
2018-12-20T08:13:42.179Z,72.71
2018-12-20T08:16:09.677Z,72.83
2018-12-20T08:18:37.073Z,72.34
2018-12-20T08:21:04.519Z,72.52
2018-12-20T08:23:32.103Z,72.33
2018-12-20T08:25:59.491Z,72.61
2018-12-20T08:28:26.884Z,72.26
2018-12-20T08:30:54.680Z,72.43
2018-12-20T08:33:22.082Z,72.29
2018-12-20T08:35:49.476Z,72.26
2018-12-20T08:38:17.149Z,72.29
2018-12-20T08:40:44.534Z,71.96
2018-12-20T08:43:11.934Z,72.14
2018-12-20T08:45:39.619Z,72.03
2018-12-20T08:48:07.026Z,71.89
2018-12-20T08:50:34.412Z,72.20
2018-12-20T08:53:01.912Z,71.90
2018-12-20T08:55:29.300Z,72.18
2018-12-20T08:57:56.698Z,71.83
2018-12-20T09:00:24.180Z,71.83
2018-12-20T09:02:51.576Z,72.06
2018-12-20T09:05:18.968Z,71.99
2018-12-20T09:07:46.386Z,71.73
2018-12-20T09:10:13.849Z,71.79
2018-12-20T09:12:41.248Z,71.59
2018-12-20T09:15:08.900Z,71.57
2018-12-20T09:17:36.304Z,71.84
2018-12-20T09:20:05.124Z,71.75
2018-12-20T09:22:32.716Z,72.04
2018-12-20T09:25:00.104Z,71.61
2018-12-20T09:27:27.522Z,71.59
2018-12-20T09:29:55.176Z,71.82
2018-12-20T09:32:22.564Z,71.89
2018-12-20T09:34:49.968Z,71.66
2018-12-20T09:37:17.544Z,71.37
2018-12-20T09:39:44.948Z,71.56
2018-12-20T09:42:12.411Z,71.21
2018-12-20T09:44:40.133Z,71.13
2018-12-20T09:47:13.087Z,71.19
2018-12-20T09:49:40.550Z,71.00
2018-12-20T09:52:07.942Z,71.38
2018-12-20T09:54:35.335Z,71.04
2018-12-20T09:57:03.059Z,71.45
2018-12-20T09:59:30.444Z,71.30
2018-12-20T10:01:57.840Z,71.09
2018-12-20T10:04:25.616Z,71.26
2018-12-20T10:06:53.133Z,71.30
2018-12-20T10:09:20.529Z,71.09
2018-12-20T10:11:48.192Z,71.25
2018-12-20T10:14:15.587Z,70.92
2018-12-20T10:16:42.991Z,70.87
2018-12-20T10:19:10.532Z,70.85
2018-12-20T10:21:37.923Z,70.76
2018-12-20T10:24:05.324Z,71.13
2018-12-20T10:26:32.936Z,70.60
2018-12-20T10:29:00.331Z,70.41
2018-12-20T10:31:27.709Z,70.70
2018-12-20T10:33:55.303Z,70.56
2018-12-20T10:36:22.761Z,70.46
2018-12-20T10:38:50.154Z,70.64
2018-12-20T10:41:17.590Z,70.46
2018-12-20T10:43:44.993Z,70.58
2018-12-20T10:46:12.396Z,70.75
2018-12-20T10:48:39.813Z,70.70
2018-12-20T10:51:07.217Z,70.30
2018-12-20T10:53:34.713Z,70.23
2018-12-20T10:56:02.308Z,70.53
2018-12-20T10:58:29.709Z,70.02
2018-12-20T11:01:02.716Z,70.49
2018-12-20T11:03:35.670Z,69.92
2018-12-20T11:06:05.029Z,70.51
2018-12-20T11:08:32.684Z,70.24
2018-12-20T11:11:04.556Z,70.49
2018-12-20T11:13:31.948Z,70.11
2018-12-20T11:15:59.340Z,70.13
2018-12-20T11:18:26.933Z,70.13
2018-12-20T11:20:54.328Z,69.94
2018-12-20T11:23:21.917Z,69.88
2018-12-20T11:25:49.355Z,69.69
2018-12-20T11:28:16.811Z,69.74
2018-12-20T11:30:44.271Z,69.98
2018-12-20T11:33:11.872Z,69.76
2018-12-20T11:35:40.156Z,69.93
2018-12-20T11:38:07.564Z,69.62
2018-12-20T11:40:34.980Z,69.48
2018-12-20T11:43:02.370Z,69.80
2018-12-20T11:45:29.763Z,69.35
2018-12-20T11:47:57.339Z,69.49
2018-12-20T11:50:24.731Z,69.29
2018-12-20T11:52:52.128Z,69.25
2018-12-20T11:55:19.909Z,69.21
2018-12-20T11:57:47.309Z,69.66
2018-12-20T12:00:14.788Z,69.59
2018-12-20T12:02:42.378Z,69.50
2018-12-20T12:05:10.687Z,69.25
2018-12-20T12:07:38.482Z,69.36
2018-12-20T12:10:06.797Z,69.29
2018-12-20T12:12:34.199Z,69.48
2018-12-20T12:15:02.383Z,69.69
2018-12-20T12:17:29.823Z,69.59
2018-12-20T12:19:57.298Z,69.33
2018-12-20T12:22:24.838Z,69.43
2018-12-20T12:24:52.464Z,69.28
2018-12-20T12:27:19.864Z,69.80
2018-12-20T12:29:47.303Z,69.47
2018-12-20T12:32:14.831Z,68.96
2018-12-20T12:34:42.299Z,68.77
2018-12-20T12:37:09.698Z,68.57
2018-12-20T12:39:37.307Z,68.42
2018-12-20T12:42:05.027Z,67.98
2018-12-20T12:44:32.427Z,67.29
2018-12-20T12:46:59.987Z,66.94
2018-12-20T12:49:27.523Z,66.42
2018-12-20T12:51:54.916Z,66.04
2018-12-20T12:54:22.351Z,65.73
2018-12-20T12:56:49.807Z,65.36
2018-12-20T12:59:18.109Z,65.19
2018-12-20T13:01:45.647Z,64.88
2018-12-20T13:04:13.535Z,64.41
2018-12-20T13:06:41.323Z,64.22
2018-12-20T13:09:08.848Z,64.06
2018-12-20T13:11:36.543Z,63.94
2018-12-20T13:14:04.218Z,64.03
2018-12-20T13:16:32.122Z,63.97
2018-12-20T13:18:59.537Z,63.86
2018-12-20T13:21:26.933Z,63.56
2018-12-20T13:23:54.500Z,63.44
2018-12-20T13:26:21.969Z,62.92
2018-12-20T13:28:49.373Z,62.33
2018-12-20T13:31:16.851Z,62.15
2018-12-20T13:33:44.249Z,62.17
2018-12-20T13:36:11.655Z,62.19
2018-12-20T13:38:39.247Z,62.13
2018-12-20T13:41:06.747Z,61.97
2018-12-20T13:43:34.223Z,62.23
2018-12-20T13:46:01.819Z,62.24
2018-12-20T13:48:29.207Z,61.75
2018-12-20T13:50:56.609Z,61.93
2018-12-20T13:53:24.397Z,61.78
2018-12-20T13:55:51.788Z,61.81
2018-12-20T13:58:19.194Z,61.82
2018-12-20T14:00:46.969Z,61.70
2018-12-20T14:03:14.378Z,61.81
2018-12-20T14:05:41.782Z,62.06
2018-12-20T14:08:09.347Z,61.89
2018-12-20T14:10:36.758Z,62.03
2018-12-20T14:13:05.259Z,62.08
2018-12-20T14:15:32.837Z,61.99
2018-12-20T14:18:00.237Z,62.25
2018-12-20T14:20:27.634Z,62.39
2018-12-20T14:22:55.112Z,62.78
2018-12-20T14:25:22.507Z,63.23
2018-12-20T14:27:49.896Z,63.42
2018-12-20T14:30:17.363Z,63.83
2018-12-20T14:32:44.792Z,64.34
2018-12-20T14:35:12.191Z,64.34
2018-12-20T14:37:39.941Z,64.64
2018-12-20T14:40:08.891Z,64.96
2018-12-20T14:42:37.771Z,65.25
2018-12-20T14:45:05.871Z,65.44
2018-12-20T14:47:33.324Z,65.36
2018-12-20T14:50:00.720Z,65.79
2018-12-20T14:52:28.268Z,65.58
2018-12-20T14:54:56.096Z,65.91
2018-12-20T14:57:23.492Z,66.21
2018-12-20T14:59:51.149Z,67.00
2018-12-20T15:02:18.604Z,66.51
2018-12-20T15:04:46.148Z,66.67
2018-12-20T15:07:13.737Z,67.10
2018-12-20T15:09:41.140Z,67.51
2018-12-20T15:12:08.596Z,67.66
2018-12-20T15:14:36.205Z,67.49
2018-12-20T15:17:04.307Z,67.78
2018-12-20T15:19:31.711Z,68.07
2018-12-20T15:21:59.291Z,67.83
2018-12-20T15:24:26.706Z,68.41
2018-12-20T15:26:54.115Z,68.51
2018-12-20T15:29:21.876Z,68.65
2018-12-20T15:31:53.334Z,68.72
2018-12-20T15:34:18.688Z,68.86
2018-12-20T15:36:46.144Z,68.75
2018-12-20T15:39:13.838Z,68.82
2018-12-20T15:41:41.244Z,68.73
2018-12-20T15:44:08.746Z,69.00
2018-12-20T15:46:36.148Z,68.93
2018-12-20T15:49:04.248Z,68.75
2018-12-20T15:51:33.483Z,69.08
2018-12-20T15:54:01.117Z,69.10
2018-12-20T15:56:28.622Z,69.04
2018-12-20T15:58:56.179Z,69.36
2018-12-20T16:01:23.627Z,69.62
2018-12-20T16:03:51.106Z,69.56
2018-12-20T16:06:18.752Z,69.42
2018-12-20T16:08:46.215Z,69.54
2018-12-20T16:11:14.349Z,69.84
2018-12-20T16:13:42.202Z,69.57
2018-12-20T16:16:09.608Z,70.11
2018-12-20T16:18:37.015Z,69.82
2018-12-20T16:21:04.879Z,69.80
2018-12-20T16:23:32.277Z,70.17
2018-12-20T16:26:00.172Z,70.05
2018-12-20T16:28:27.635Z,70.31
2018-12-20T16:30:55.152Z,70.43
2018-12-20T16:33:22.655Z,70.35
2018-12-20T16:35:50.202Z,70.30
2018-12-20T16:38:17.599Z,70.46
2018-12-20T16:40:45.791Z,70.48
2018-12-20T16:43:13.245Z,70.37
2018-12-20T16:45:41.111Z,70.20
2018-12-20T16:48:08.769Z,70.34
2018-12-20T16:50:36.281Z,70.63
2018-12-20T16:53:03.739Z,70.81
2018-12-20T16:55:31.150Z,70.58
2018-12-20T16:57:58.706Z,70.67
2018-12-20T17:00:26.135Z,70.90
2018-12-20T17:02:53.622Z,71.00
2018-12-20T17:05:21.395Z,70.87
2018-12-20T17:07:48.793Z,70.99
2018-12-20T17:10:16.198Z,70.98
2018-12-20T17:12:45.188Z,70.67
2018-12-20T17:15:12.813Z,70.62
2018-12-20T17:17:40.209Z,70.79
2018-12-20T17:20:08.689Z,70.56
2018-12-20T17:22:36.088Z,70.53
2018-12-20T17:25:04.340Z,70.56
2018-12-20T17:27:31.868Z,70.82
2018-12-20T17:29:59.268Z,71.02
2018-12-20T17:32:26.684Z,70.89
2018-12-20T17:34:54.111Z,70.68
2018-12-20T17:37:21.538Z,70.92
2018-12-20T17:39:48.938Z,70.86
2018-12-20T17:42:16.622Z,70.59
2018-12-20T17:44:44.016Z,70.69
2018-12-20T17:47:11.540Z,70.81
2018-12-20T17:49:38.974Z,70.94
2018-12-20T17:52:06.364Z,70.80
2018-12-20T17:54:34.780Z,70.59
2018-12-20T17:57:02.397Z,70.83
2018-12-20T17:59:30.001Z,71.24
2018-12-20T18:01:57.479Z,71.23
2018-12-20T18:04:25.164Z,71.02
2018-12-20T18:06:52.616Z,71.19
2018-12-20T18:09:20.712Z,71.14
2018-12-20T18:11:48.249Z,71.54
2018-12-20T18:14:16.052Z,71.70
2018-12-20T18:16:43.660Z,71.42
2018-12-20T18:19:12.372Z,71.68
2018-12-20T18:21:40.129Z,71.42
2018-12-20T18:24:07.570Z,71.46
2018-12-20T18:26:35.144Z,71.77
2018-12-20T18:29:02.560Z,71.70
2018-12-20T18:31:29.958Z,71.79
2018-12-20T18:33:57.728Z,71.86
2018-12-20T18:36:25.255Z,71.80
2018-12-20T18:38:52.650Z,71.56
2018-12-20T18:41:20.184Z,71.74
2018-12-20T18:43:47.596Z,71.71
2018-12-20T18:46:15.198Z,71.79
2018-12-20T18:48:42.866Z,71.58
2018-12-20T18:51:10.254Z,71.67
2018-12-20T18:53:37.683Z,71.44
2018-12-20T18:56:05.458Z,71.79
2018-12-20T18:58:32.831Z,71.88
2018-12-20T19:01:00.232Z,71.49
2018-12-20T19:03:27.686Z,71.80
2018-12-20T19:05:55.103Z,71.68
2018-12-20T19:08:22.532Z,71.92
2018-12-20T19:10:49.951Z,71.70
2018-12-20T19:13:17.399Z,71.82
2018-12-20T19:15:44.937Z,71.91
2018-12-20T19:18:12.385Z,71.67
2018-12-20T19:20:39.984Z,71.92
2018-12-20T19:23:07.372Z,71.61
2018-12-20T19:25:35.134Z,72.09
2018-12-20T19:28:02.637Z,71.87
2018-12-20T19:30:30.028Z,71.63
2018-12-20T19:32:57.897Z,71.82
2018-12-20T19:35:25.289Z,71.73
2018-12-20T19:37:53.082Z,71.78
2018-12-20T19:40:20.582Z,71.52
2018-12-20T19:42:48.282Z,71.48
2018-12-20T19:45:15.694Z,71.42
2018-12-20T19:47:43.318Z,71.27
2018-12-20T19:50:10.701Z,71.24
2018-12-20T19:52:38.087Z,71.45
2018-12-20T19:55:06.057Z,71.33
2018-12-20T19:57:33.497Z,71.30
2018-12-20T20:00:00.925Z,71.64
2018-12-20T20:02:28.515Z,71.31
2018-12-20T20:04:55.945Z,71.38
2018-12-20T20:07:24.014Z,71.55
2018-12-20T20:09:51.903Z,71.41
2018-12-20T20:12:19.314Z,71.71
2018-12-20T20:14:46.714Z,71.31
2018-12-20T20:17:14.383Z,71.50
2018-12-20T20:19:41.900Z,71.45
2018-12-20T20:22:09.367Z,71.58
2018-12-20T20:24:37.143Z,71.41
2018-12-20T20:27:04.690Z,71.81
2018-12-20T20:29:32.101Z,71.50
2018-12-20T20:31:59.555Z,71.60
2018-12-20T20:34:27.443Z,71.92
2018-12-20T20:36:54.848Z,72.15
2018-12-20T20:39:22.516Z,71.87
2018-12-20T20:41:50.292Z,72.03
2018-12-20T20:44:17.700Z,71.84
2018-12-20T20:46:45.124Z,72.12
2018-12-20T20:49:12.589Z,71.96
2018-12-20T20:51:40.704Z,72.04
2018-12-20T20:54:08.389Z,71.97
2018-12-20T20:56:35.810Z,71.59
2018-12-20T20:59:03.335Z,71.81
2018-12-20T21:01:30.857Z,72.05
2018-12-20T21:04:03.497Z,71.94
2018-12-20T21:06:27.701Z,72.04
2018-12-20T21:08:55.297Z,71.85
2018-12-20T21:11:22.733Z,72.14
2018-12-20T21:13:50.152Z,71.96
2018-12-20T21:16:17.852Z,71.75
2018-12-20T21:18:45.952Z,71.92
2018-12-20T21:21:13.426Z,71.84
2018-12-20T21:23:40.964Z,72.17
2018-12-20T21:26:08.832Z,71.99
2018-12-20T21:28:36.237Z,71.86
2018-12-20T21:31:03.992Z,72.06
2018-12-20T21:33:31.813Z,71.94
2018-12-20T21:35:59.430Z,72.03
2018-12-20T21:38:27.124Z,72.06
2018-12-20T21:40:54.524Z,71.58
2018-12-20T21:43:21.913Z,71.53
2018-12-20T21:45:49.727Z,71.85
2018-12-20T21:48:17.140Z,71.93
2018-12-20T21:50:45.022Z,71.52
2018-12-20T21:53:12.672Z,72.04
2018-12-20T21:55:40.158Z,71.67
2018-12-20T21:58:07.561Z,71.71
2018-12-20T22:00:35.262Z,71.54
2018-12-20T22:03:02.662Z,71.71
2018-12-20T22:05:30.060Z,71.62
2018-12-20T22:07:57.516Z,71.76
2018-12-20T22:10:24.916Z,71.43
2018-12-20T22:12:52.306Z,71.53
2018-12-20T22:15:19.960Z,71.84
2018-12-20T22:17:47.368Z,71.97
2018-12-20T22:20:14.904Z,71.89
2018-12-20T22:22:43.393Z,72.15
2018-12-20T22:25:12.036Z,71.79
2018-12-20T22:27:39.504Z,71.69
2018-12-20T22:30:08.478Z,71.94
2018-12-20T22:32:35.873Z,71.99
2018-12-20T22:35:03.964Z,71.98
2018-12-20T22:37:31.913Z,71.85
2018-12-20T22:39:59.312Z,71.58
2018-12-20T22:42:26.704Z,71.72
2018-12-20T22:44:54.288Z,71.49
2018-12-20T22:47:22.060Z,71.56
2018-12-20T22:49:49.460Z,71.66
2018-12-20T22:52:16.970Z,71.59
2018-12-20T22:54:44.863Z,71.61
2018-12-20T22:57:12.263Z,71.53
2018-12-20T22:59:39.943Z,71.65
2018-12-20T23:02:07.395Z,71.94
2018-12-20T23:04:35.124Z,71.43
2018-12-20T23:07:02.716Z,71.82
2018-12-20T23:09:30.224Z,71.41
2018-12-20T23:11:57.625Z,71.38
2018-12-20T23:14:25.204Z,71.54
2018-12-20T23:16:53.849Z,71.78
2018-12-20T23:19:21.695Z,71.50
2018-12-20T23:21:49.134Z,71.36
2018-12-20T23:24:16.524Z,71.89
2018-12-20T23:26:43.929Z,71.55
2018-12-20T23:29:11.353Z,71.82
2018-12-20T23:31:39.540Z,71.90
2018-12-20T23:34:07.246Z,71.78
2018-12-20T23:36:34.786Z,71.48
2018-12-20T23:39:02.181Z,71.75
2018-12-20T23:41:29.589Z,71.58
2018-12-20T23:43:57.143Z,71.55
2018-12-20T23:46:24.597Z,71.42
2018-12-20T23:48:52.570Z,71.61
2018-12-20T23:51:20.223Z,71.45
2018-12-20T23:53:47.911Z,71.39
2018-12-20T23:56:15.365Z,71.31
2018-12-20T23:58:42.905Z,71.26
